Time;durP1;ratioP1;P1;durP2;ratioP2;P2;SDS_P1;SDS_P2;PMS_P1;PMS_P2;Temp;Humidity;BMP_temperature;BMP_pressure;BME280_temperature;BME280_humidity;BME280_pressure;Samples;Min_cycle;Max_cycle;Signal;HPM_P1;HPM_P2
2021/06/02 03:30:31;;;;;;;4.07;3.77;;;;;;;12.51;55.73;98652.84;8422225;23;21016;31
2021/06/02 03:34:15;;;;;;;4.10;3.73;;;;;;;13.13;54.61;98660.81;6848058;29;20701;-86
2021/06/02 03:37:57;;;;;;;8.03;3.70;;;;;;;13.16;54.15;98638.72;6850663;29;20258;-86
2021/06/02 03:41:24;;;;;;;4.50;4.00;;;;;;;13.31;53.76;98652.69;6850631;29;20233;-86
2021/06/02 03:44:53;;;;;;;4.10;3.80;;;;;;;13.26;53.38;98669.63;6849956;29;20225;-87
2021/06/02 03:48:31;;;;;;;4.57;3.57;;;;;;;13.57;52.85;98663.22;6850231;29;20210;-86
2021/06/02 03:51:57;;;;;;;3.70;3.40;;;;;;;13.73;52.23;98665.28;6850445;29;20230;-87
2021/06/02 03:55:23;;;;;;;4.20;3.80;;;;;;;12.99;54.05;98678.25;6850032;29;20205;-87
2021/06/02 03:58:50;;;;;;;4.03;3.73;;;;;;;13.30;53.90;98687.06;6849345;29;20210;-87
2021/06/02 04:02:21;;;;;;;6.10;5.50;;;;;;;13.65;53.21;98669.16;6848963;29;20313;-87
2021/06/02 04:05:50;;;;;;;5.20;4.30;;;;;;;13.24;53.86;98674.44;6849776;29;20236;-86
2021/06/02 04:09:13;;;;;;;3.87;3.53;;;;;;;13.31;53.81;98677.91;6849401;29;20205;-87
2021/06/02 04:12:38;;;;;;;6.73;4.73;;;;;;;13.46;53.45;98674.81;6848444;29;20229;-86
2021/06/02 04:16:08;;;;;;;5.50;3.93;;;;;;;13.10;52.85;98615.25;6849732;29;20222;-83
2021/06/02 04:19:42;;;;;;;4.43;3.73;;;;;;;13.39;53.65;98674.88;6832057;29;20228;-86
2021/06/02 04:23:05;;;;;;;11.73;8.97;;;;;;;13.42;53.37;98644.66;6846160;28;20230;-87
2021/06/02 04:26:30;;;;;;;5.40;4.90;;;;;;;13.50;53.40;98659.75;6848219;29;20246;-86
2021/06/02 04:29:52;;;;;;;5.13;4.37;;;;;;;13.80;52.43;98660.63;6851114;29;20257;-86
2021/06/02 04:33:16;;;;;;;6.50;4.57;;;;;;;13.50;52.38;98608.28;6855234;29;20249;-86
2021/06/02 04:36:37;;;;;;;4.40;4.00;;;;;;;13.79;53.14;98678.75;6839944;29;20221;-84
2021/06/02 04:40:01;;;;;;;3.77;3.43;;;;;;;14.08;52.57;98688.78;6821630;29;20314;-85
2021/06/02 04:43:23;;;;;;;3.80;3.43;;;;;;;14.59;51.60;98682.81;6820981;29;20238;-84
2021/06/02 04:46:47;;;;;;;4.90;4.07;;;;;;;14.76;50.52;98692.75;6835791;29;20722;-85
2021/06/02 04:50:19;;;;;;;4.00;3.60;;;;;;;15.45;49.42;98673.75;6848089;29;20821;-85
2021/06/02 04:54:22;;;;;;;4.13;3.83;;;;;;;15.62;48.31;98657.56;6846202;29;20214;-84
2021/06/02 04:58:03;;;;;;;5.70;4.73;;;;;;;15.12;48.89;98643.69;6847222;29;20189;-85
2021/06/02 05:02:04;;;;;;;4.63;4.17;;;;;;;15.41;48.87;98674.47;6847058;29;20240;-85
2021/06/02 05:05:40;;;;;;;3.80;3.27;;;;;;;15.93;48.38;98687.81;6805087;29;20238;-85
2021/06/02 05:09:20;;;;;;;5.47;3.60;;;;;;;16.93;46.27;98697.81;6847316;29;20196;-85
2021/06/02 05:13:28;;;;;;;4.20;3.80;;;;;;;16.87;46.42;98695.28;6840079;28;20228;-86
2021/06/02 05:17:25;;;;;;;4.30;3.67;;;;;;;17.18;45.90;98690.06;6810845;29;20209;-86
2021/06/02 05:25:19;;;;;;;6.53;3.60;;;;;;;18.58;41.93;98669.97;6846860;29;20226;-89
2021/06/02 05:29:11;;;;;;;4.00;3.17;;;;;;;19.51;40.59;98686.56;6839350;29;20194;-87
2021/06/02 05:33:08;;;;;;;3.50;3.20;;;;;;;18.43;43.02;98685.38;6854761;29;20235;-89
2021/06/02 05:37:12;;;;;;;3.83;3.30;;;;;;;18.40;43.98;98702.31;6844460;29;20216;-87
2021/06/02 05:40:42;;;;;;;4.17;3.13;;;;;;;18.62;43.54;98698.41;6845845;29;20233;-87
2021/06/02 05:44:53;;;;;;;3.87;3.17;;;;;;;19.03;42.02;98694.13;6847754;29;20284;-87
2021/06/02 05:48:50;;;;;;;4.47;3.00;;;;;;;20.11;40.59;98699.72;6848841;29;20234;-87
2021/06/02 05:52:28;;;;;;;7.90;3.60;;;;;;;20.52;40.00;98701.50;6848657;29;20256;-87
2021/06/02 05:56:31;;;;;;;3.73;3.27;;;;;;;20.90;39.31;98698.25;6848730;29;20226;-86
2021/06/02 06:00:17;;;;;;;7.40;3.10;;;;;;;20.86;38.77;98686.19;6820992;29;20213;-86
2021/06/02 06:04:22;;;;;;;5.30;3.50;;;;;;;21.32;38.07;98691.38;6845799;29;20217;-87
2021/06/02 06:08:17;;;;;;;4.40;3.40;;;;;;;21.88;37.31;98688.25;6848373;29;20184;-86
2021/06/02 06:11:59;;;;;;;4.87;3.23;;;;;;;21.66;37.24;98646.56;6848436;29;20223;-87
2021/06/02 06:15:43;;;;;;;4.60;3.47;;;;;;;22.22;37.83;98685.63;6848110;29;20198;-87
2021/06/02 06:19:43;;;;;;;5.83;3.43;;;;;;;22.48;36.88;98685.22;6848442;29;20280;-88
2021/06/02 06:23:46;;;;;;;3.60;3.30;;;;;;;22.60;36.75;98682.94;6824804;29;20237;-85
2021/06/02 06:27:13;;;;;;;5.40;3.43;;;;;;;23.80;34.89;98683.78;6828850;29;20209;-87
2021/06/02 06:30:37;;;;;;;4.17;3.77;;;;;;;24.84;32.80;98676.03;6848297;29;20324;-87
2021/06/02 06:33:59;;;;;;;6.73;3.43;;;;;;;24.77;32.56;98672.84;6848415;29;20256;-87
2021/06/02 06:37:20;;;;;;;3.17;2.90;;;;;;;23.68;34.30;98659.44;6847934;29;20227;-87
2021/06/02 06:40:42;;;;;;;4.07;3.33;;;;;;;24.86;32.60;98679.34;6847804;29;20256;-86
2021/06/02 06:44:06;;;;;;;5.27;2.90;;;;;;;25.92;30.62;98629.38;6848620;29;20212;-87
2021/06/02 06:47:27;;;;;;;3.43;2.70;;;;;;;26.14;28.62;98615.63;6851337;28;20202;-87
2021/06/02 06:50:51;;;;;;;3.23;2.37;;;;;;;26.11;27.11;98679.00;6854021;29;20229;-87
2021/06/02 06:54:13;;;;;;;2.87;2.57;;;;;;;25.30;29.05;98615.44;6854023;29;20186;-90
2021/06/02 06:57:35;;;;;;;5.63;2.60;;;;;;;25.79;28.13;98594.25;6845914;29;20198;-88
2021/06/02 07:00:58;;;;;;;3.97;2.43;;;;;;;26.94;27.44;98677.38;6843869;29;20262;-88
2021/06/02 07:04:20;;;;;;;2.97;2.30;;;;;;;27.08;27.17;98655.19;6831408;29;20235;-88
2021/06/02 07:07:43;;;;;;;3.27;2.53;;;;;;;26.62;27.41;98633.38;6829154;29;20210;-87
2021/06/02 07:11:04;;;;;;;2.40;2.20;;;;;;;25.44;29.40;98685.28;6832151;29;20323;-88
2021/06/02 07:14:29;;;;;;;2.70;2.50;;;;;;;24.26;27.75;98564.44;6828674;29;20236;-88
2021/06/02 07:17:52;;;;;;;2.73;2.50;;;;;;;25.16;28.87;98618.13;6827776;29;20217;-88
2021/06/02 07:21:15;;;;;;;3.20;2.40;;;;;;;25.52;27.33;98590.69;6826829;29;20230;-88
2021/06/02 07:24:37;;;;;;;3.07;2.20;;;;;;;26.58;26.40;98664.69;6826141;29;20288;-89
2021/06/02 07:28:01;;;;;;;2.80;2.50;;;;;;;26.72;25.18;98594.38;6828093;29;20226;-87
2021/06/02 07:31:23;;;;;;;5.00;2.27;;;;;;;27.67;25.31;98636.16;6827286;29;20234;-88
2021/06/02 07:34:46;;;;;;;2.47;2.13;;;;;;;27.94;24.00;98568.63;6826916;29;20211;-88
2021/06/02 07:38:09;;;;;;;2.50;2.30;;;;;;;28.18;23.22;98572.56;6826908;29;20199;-87
2021/06/02 07:41:30;;;;;;;3.50;2.50;;;;;;;28.48;23.88;98663.19;6826237;29;20297;-88
2021/06/02 07:44:54;;;;;;;3.23;2.80;;;;;;;26.75;25.84;98519.06;6826985;29;20226;-87
2021/06/02 07:48:15;;;;;;;2.83;2.63;;;;;;;27.16;26.28;98619.28;6827125;29;20215;-86
2021/06/02 07:51:37;;;;;;;3.30;2.70;;;;;;;25.95;27.90;98652.81;6826762;29;20238;-87
2021/06/02 07:54:59;;;;;;;3.33;2.70;;;;;;;26.63;26.50;98636.94;6827618;29;20224;-86
2021/06/02 07:58:20;;;;;;;3.63;2.63;;;;;;;27.56;26.57;98670.00;6827109;29;20209;-87
2021/06/02 08:01:41;;;;;;;3.93;2.73;;;;;;;27.63;26.66;98654.56;6827278;29;20259;-88
2021/06/02 08:05:03;;;;;;;4.07;2.70;;;;;;;26.89;27.50;98627.69;6826282;29;20234;-87
2021/06/02 08:08:26;;;;;;;3.70;2.90;;;;;;;24.88;30.65;98621.94;6846556;29;20206;-86
2021/06/02 08:11:48;;;;;;;4.63;2.83;;;;;;;26.44;27.70;98630.72;6853737;29;20225;-83
2021/06/02 08:15:11;;;;;;;3.63;2.40;;;;;;;27.95;26.61;98654.22;6853468;29;20210;-88
2021/06/02 08:18:32;;;;;;;4.83;2.70;;;;;;;27.11;27.14;98652.59;6857414;29;20220;-88
2021/06/02 08:21:53;;;;;;;2.83;2.43;;;;;;;27.12;26.70;98654.22;6857115;29;20234;-88
2021/06/02 08:25:17;;;;;;;5.87;2.80;;;;;;;27.23;26.33;98621.59;6858007;29;20237;-88
2021/06/02 08:28:38;;;;;;;2.80;2.53;;;;;;;26.95;25.52;98656.09;6851752;29;20221;-89
2021/06/02 08:31:59;;;;;;;4.33;2.57;;;;;;;27.71;27.14;98670.41;6852959;29;20707;-88
2021/06/02 08:35:22;;;;;;;3.53;2.50;;;;;;;27.27;25.70;98604.06;6854024;29;20214;-89
2021/06/02 08:38:43;;;;;;;2.73;2.33;;;;;;;28.19;24.56;98570.63;6854405;29;20211;-88
2021/06/02 08:42:22;;;;;;;2.90;2.60;;;;;;;29.13;24.01;98647.22;6855259;29;20241;-88
2021/06/02 08:45:43;;;;;;;4.83;2.50;;;;;;;29.75;22.47;98640.03;6855285;29;20230;-88
2021/06/02 08:49:13;;;;;;;4.23;2.23;;;;;;;30.53;21.41;98675.47;6845255;29;20209;-89
2021/06/02 08:52:36;;;;;;;3.27;2.23;;;;;;;31.28;21.07;98669.66;6849927;29;20225;-88
2021/06/02 08:55:57;;;;;;;3.10;2.33;;;;;;;31.72;20.07;98643.75;6838224;29;20234;-88
2021/06/02 08:59:20;;;;;;;2.13;1.97;;;;;;;30.70;21.22;98671.75;6826270;29;20665;-88
2021/06/02 09:02:46;;;;;;;2.40;2.20;;;;;;;31.71;20.50;98675.56;6844022;29;20288;-88
2021/06/02 09:06:08;;;;;;;2.60;2.40;;;;;;;30.87;20.97;98674.41;6849513;29;20213;-89
2021/06/02 09:09:30;;;;;;;3.47;2.17;;;;;;;29.99;19.25;98629.13;6853003;28;20274;-90
2021/06/02 09:12:54;;;;;;;4.37;2.30;;;;;;;29.81;20.21;98669.28;6849915;29;20244;-88
2021/06/02 09:16:23;;;;;;;2.37;2.13;;;;;;;30.03;20.11;98677.38;6849455;28;20228;-88
2021/06/02 09:19:45;;;;;;;2.33;2.10;;;;;;;30.55;18.99;98661.22;6849208;28;20191;-88
2021/06/02 09:23:28;;;;;;;3.23;2.07;;;;;;;30.00;18.68;98641.88;6849297;29;20264;-87
2021/06/02 09:26:49;;;;;;;5.03;2.57;;;;;;;30.96;18.44;98662.03;6849780;29;20224;-87
2021/06/02 09:30:12;;;;;;;2.80;2.60;;;;;;;31.66;18.80;98661.84;6849094;29;20201;-86
2021/06/02 09:33:44;;;;;;;3.00;1.90;;;;;;;31.95;16.81;98666.47;6848751;29;20215;-90
2021/06/02 09:37:06;;;;;;;2.50;2.30;;;;;;;32.16;17.96;98614.13;6848303;29;20268;-86
2021/06/02 09:40:29;;;;;;;2.33;2.13;;;;;;;30.95;16.63;98642.91;6831811;29;20218;-84
2021/06/02 09:43:51;;;;;;;3.73;2.30;;;;;;;31.23;17.04;98664.28;6822400;29;20206;-82
2021/06/02 09:47:12;;;;;;;4.70;2.20;;;;;;;30.83;16.33;98651.22;6826928;29;20238;-86
2021/06/02 09:50:37;;;;;;;2.30;1.93;;;;;;;29.53;18.28;98589.44;6822049;29;20233;-86
2021/06/02 09:53:59;;;;;;;2.57;2.37;;;;;;;30.41;17.19;98649.50;6822902;29;20222;-81
2021/06/02 09:57:20;;;;;;;2.97;2.10;;;;;;;29.49;16.95;98616.25;6822625;29;20217;-86
2021/06/02 10:00:43;;;;;;;3.43;2.20;;;;;;;28.54;18.47;98577.84;6824314;29;20226;-84
2021/06/02 10:04:11;;;;;;;2.77;2.20;;;;;;;31.19;17.06;98648.59;6825348;29;20220;-87
2021/06/02 10:07:37;;;;;;;4.37;2.30;;;;;;;31.09;16.54;98641.47;6823942;29;20210;-87
2021/06/02 10:11:12;;;;;;;2.40;2.20;;;;;;;29.13;18.16;98661.09;6838730;29;20240;-87
2021/06/02 10:14:33;;;;;;;2.53;2.00;;;;;;;29.90;16.81;98664.50;6865146;28;20216;-87
2021/06/02 10:17:54;;;;;;;2.33;2.13;;;;;;;30.21;16.89;98647.53;6867823;28;20217;-87
2021/06/02 10:21:15;;;;;;;3.63;2.13;;;;;;;32.34;15.71;98649.84;6869545;28;20236;-86
2021/06/02 10:24:38;;;;;;;2.53;2.10;;;;;;;32.50;14.92;98616.44;6870409;28;20230;-87
2021/06/02 10:27:59;;;;;;;3.43;2.30;;;;;;;32.26;15.23;98677.88;6871084;29;20205;-88
2021/06/02 10:31:20;;;;;;;2.70;2.20;;;;;;;32.47;16.19;98659.00;6853472;29;20241;-87
2021/06/02 10:34:41;;;;;;;2.27;2.07;;;;;;;32.85;15.61;98649.06;6854328;29;20214;-87
2021/06/02 10:38:02;;;;;;;3.90;2.13;;;;;;;32.82;15.60;98663.75;6853123;29;20208;-87
2021/06/02 10:41:27;;;;;;;5.50;1.90;;;;;;;32.68;16.19;98660.50;6852131;29;20236;-85
2021/06/02 10:44:52;;;;;;;3.50;2.37;;;;;;;33.73;14.82;98652.38;6852693;29;20228;-87
2021/06/02 10:48:13;;;;;;;3.17;2.00;;;;;;;33.06;15.73;98655.28;6853477;29;20215;-86
2021/06/02 10:51:42;;;;;;;2.27;2.07;;;;;;;33.09;15.36;98665.75;6851811;29;20228;-86
2021/06/02 10:55:38;;;;;;;2.43;1.93;;;;;;;33.22;15.30;98669.31;6852723;29;20217;-85
2021/06/02 10:59:01;;;;;;;2.87;2.20;;;;;;;33.08;15.86;98660.53;6843424;29;20209;-85
2021/06/02 11:02:29;;;;;;;2.03;1.93;;;;;;;33.62;14.82;98648.50;6851688;29;20233;-86
2021/06/02 11:06:07;;;;;;;3.50;1.97;;;;;;;34.39;14.36;98655.28;6851824;29;20210;-86
2021/06/02 11:09:28;;;;;;;3.63;2.10;;;;;;;34.09;13.98;98657.75;6851388;29;20213;-86
2021/06/02 11:13:03;;;;;;;4.23;2.17;;;;;;;33.50;15.42;98662.53;6850801;29;20255;-85
2021/06/02 11:16:39;;;;;;;2.10;1.90;;;;;;;33.55;15.39;98655.88;6851643;29;20209;-86
2021/06/02 11:20:06;;;;;;;3.20;2.00;;;;;;;32.47;14.74;98657.03;6852333;29;20208;-85
2021/06/02 11:23:29;;;;;;;2.43;1.90;;;;;;;32.19;14.31;98639.34;6864608;28;20221;-86
2021/06/02 11:26:51;;;;;;;3.10;1.80;;;;;;;32.61;15.15;98653.88;6870858;28;20221;-86
2021/06/02 11:30:30;;;;;;;2.40;2.07;;;;;;;31.20;15.05;98655.81;6864956;29;20217;-88
2021/06/02 11:33:53;;;;;;;2.30;2.10;;;;;;;30.81;15.86;98656.28;6852297;28;20198;-85
2021/06/02 11:37:16;;;;;;;2.10;1.90;;;;;;;31.32;15.79;98662.22;6853925;29;20220;-85
2021/06/02 11:40:37;;;;;;;1.97;1.77;;;;;;;31.67;15.87;98643.16;6863723;29;20236;-86
2021/06/02 11:43:59;;;;;;;3.00;2.13;;;;;;;30.57;17.23;98670.84;6859033;29;20208;-86
2021/06/02 11:47:20;;;;;;;1.90;1.80;;;;;;;31.26;15.94;98665.56;6855397;29;20226;-85
2021/06/02 11:50:43;;;;;;;2.30;1.90;;;;;;;32.23;15.43;98595.66;6852647;29;20661;-86
2021/06/02 11:54:04;;;;;;;2.03;1.80;;;;;;;32.73;14.97;98671.41;6852761;29;20686;-86
2021/06/02 11:57:27;;;;;;;3.03;2.13;;;;;;;31.31;15.98;98654.22;6852481;29;20214;-85
2021/06/02 12:00:49;;;;;;;2.17;1.80;;;;;;;31.66;16.31;98650.69;6853649;29;20239;-86
2021/06/02 12:04:11;;;;;;;2.07;1.90;;;;;;;30.44;16.55;98632.94;6852071;29;20200;-85
2021/06/02 12:07:33;;;;;;;2.37;2.20;;;;;;;29.99;16.76;98612.44;6852848;29;20232;-85
2021/06/02 12:10:57;;;;;;;3.87;1.80;;;;;;;31.84;15.44;98654.94;6851423;29;20235;-85
2021/06/02 12:14:22;;;;;;;2.23;1.90;;;;;;;31.22;15.80;98671.03;6852633;29;20266;-85
2021/06/02 12:17:44;;;;;;;4.50;2.10;;;;;;;30.44;16.78;98673.88;6850668;29;20228;-85
2021/06/02 12:21:17;;;;;;;2.20;2.10;;;;;;;31.81;16.10;98677.13;6824844;29;20238;-85
2021/06/02 12:24:40;;;;;;;2.27;1.60;;;;;;;33.19;15.16;98672.81;6845832;29;20279;-85
2021/06/02 12:28:04;;;;;;;3.17;2.10;;;;;;;33.23;14.68;98671.75;6850031;29;20212;-85
2021/06/02 12:31:37;;;;;;;2.00;1.70;;;;;;;32.43;14.75;98675.66;6850611;29;20258;-84
2021/06/02 12:34:59;;;;;;;2.37;1.90;;;;;;;31.61;15.17;98602.72;6848997;29;20221;-85
2021/06/02 12:38:23;;;;;;;2.00;1.80;;;;;;;31.83;15.20;98672.03;6850155;29;20200;-86
2021/06/02 12:41:47;;;;;;;3.67;1.77;;;;;;;33.94;13.42;98644.56;6848047;29;20224;-86
2021/06/02 12:45:09;;;;;;;4.10;2.10;;;;;;;32.65;13.79;98638.03;6846546;28;20229;-86
2021/06/02 12:48:32;;;;;;;1.87;1.70;;;;;;;32.36;14.75;98635.56;6847622;29;20210;-86
2021/06/02 12:51:55;;;;;;;3.00;1.93;;;;;;;33.11;14.66;98645.81;6847737;29;20244;-83
2021/06/02 12:55:17;;;;;;;2.13;1.80;;;;;;;31.64;15.40;98655.81;6846123;29;20261;-85
2021/06/02 12:58:40;;;;;;;4.43;1.60;;;;;;;31.76;15.88;98658.66;6835951;29;20215;-85
2021/06/02 13:02:03;;;;;;;2.90;2.37;;;;;;;32.26;15.13;98661.94;6848187;29;20234;-85
2021/06/02 13:05:25;;;;;;;2.03;1.93;;;;;;;29.78;17.04;98636.59;6849172;29;20242;-85
2021/06/02 13:08:47;;;;;;;2.50;1.60;;;;;;;32.00;16.14;98655.03;6848405;29;20212;-83
2021/06/02 13:12:18;;;;;;;2.37;1.80;;;;;;;33.50;14.78;98650.56;6849496;29;20229;-85
2021/06/02 13:15:42;;;;;;;2.10;1.90;;;;;;;34.38;13.88;98656.47;6849217;29;20244;-86
2021/06/02 13:19:05;;;;;;;1.70;1.60;;;;;;;33.00;14.08;98644.69;6849136;29;20219;-85
2021/06/02 13:22:26;;;;;;;3.10;1.90;;;;;;;32.38;15.71;98650.75;6849655;29;20360;-85
2021/06/02 13:25:58;;;;;;;4.33;1.57;;;;;;;33.08;13.96;98647.34;6850996;29;20229;-85
2021/06/02 13:29:20;;;;;;;2.60;1.80;;;;;;;33.09;14.46;98640.63;6849824;29;20620;-86
2021/06/02 13:32:55;;;;;;;2.37;1.73;;;;;;;31.93;15.99;98666.81;6849424;28;20255;-86
2021/06/02 13:36:18;;;;;;;3.97;1.90;;;;;;;32.80;14.13;98652.13;6848707;29;20233;-85
2021/06/02 13:39:39;;;;;;;2.10;1.47;;;;;;;33.41;14.05;98653.50;6848101;29;20211;-85
2021/06/02 13:43:05;;;;;;;1.77;1.60;;;;;;;33.45;13.70;98617.25;6849093;29;20245;-85
2021/06/02 13:46:28;;;;;;;1.73;1.40;;;;;;;33.27;13.27;98661.53;6849941;29;20217;-85
2021/06/02 13:49:50;;;;;;;1.83;1.60;;;;;;;32.24;13.84;98650.31;6848778;29;20202;-83
2021/06/02 13:53:12;;;;;;;2.00;1.50;;;;;;;32.55;14.58;98658.09;6844371;29;20227;-85
2021/06/02 13:56:48;;;;;;;2.33;1.37;;;;;;;32.94;13.95;98655.31;6837446;29;20213;-85
2021/06/02 14:00:10;;;;;;;3.90;1.30;;;;;;;33.49;13.11;98602.19;6847817;29;20197;-85
2021/06/02 14:03:31;;;;;;;3.13;1.33;;;;;;;33.58;13.33;98627.19;6848365;29;20226;-87
2021/06/02 14:06:58;;;;;;;3.83;1.67;;;;;;;33.71;13.31;98645.50;6849397;29;20276;-86
2021/06/02 14:10:19;;;;;;;3.93;1.50;;;;;;;32.67;12.88;98650.47;6849241;29;20186;-87
2021/06/02 14:13:40;;;;;;;2.40;1.40;;;;;;;33.31;13.14;98628.88;6852917;29;20274;-86
2021/06/02 14:17:02;;;;;;;2.03;1.63;;;;;;;33.26;12.85;98643.06;6848265;29;20206;-87
2021/06/02 14:20:24;;;;;;;1.63;1.50;;;;;;;32.55;12.73;98586.28;6847468;29;20259;-87
2021/06/02 14:23:47;;;;;;;1.60;1.50;;;;;;;33.07;12.34;98583.47;6846310;29;20201;-86
2021/06/02 14:27:08;;;;;;;1.70;1.60;;;;;;;32.90;12.59;98646.03;6847246;29;20225;-87
2021/06/02 14:30:30;;;;;;;2.03;1.20;;;;;;;32.50;13.13;98661.94;6822130;29;20216;-86
2021/06/02 14:33:51;;;;;;;5.53;1.77;;;;;;;32.72;13.42;98655.81;6821136;29;20218;-87
2021/06/02 14:37:12;;;;;;;2.10;1.50;;;;;;;32.96;13.92;98655.78;6821274;29;20225;-86
2021/06/02 14:40:39;;;;;;;1.60;1.50;;;;;;;31.91;14.92;98649.59;6821902;29;20249;-87
2021/06/02 14:44:00;;;;;;;4.83;1.50;;;;;;;31.41;15.33;98578.50;6822151;29;20191;-86
2021/06/02 14:47:21;;;;;;;7.13;1.73;;;;;;;31.00;15.59;98585.00;6821990;29;20227;-86
2021/06/02 14:50:43;;;;;;;1.97;1.33;;;;;;;31.61;15.58;98641.75;6821550;29;20243;-86
2021/06/02 14:54:05;;;;;;;2.93;1.53;;;;;;;32.68;14.38;98646.53;6822126;29;20217;-86
2021/06/02 14:57:28;;;;;;;4.17;1.67;;;;;;;32.58;14.32;98610.72;6822629;29;20215;-86
2021/06/02 15:00:49;;;;;;;2.87;1.50;;;;;;;33.22;14.29;98649.72;6822934;29;20230;-86
2021/06/02 15:04:10;;;;;;;2.27;1.40;;;;;;;32.62;13.91;98603.28;6821996;29;20667;-86
2021/06/02 15:07:32;;;;;;;1.70;1.60;;;;;;;31.52;14.55;98596.41;6823173;29;20230;-87
2021/06/02 15:10:53;;;;;;;1.90;1.60;;;;;;;32.11;14.85;98637.50;6825975;29;20246;-86
2021/06/02 15:14:18;;;;;;;1.83;1.30;;;;;;;32.19;14.20;98652.50;6825815;29;20199;-85
2021/06/02 15:17:39;;;;;;;1.97;1.40;;;;;;;32.16;13.87;98658.78;6826198;29;20229;-86
2021/06/02 15:21:01;;;;;;;2.83;1.80;;;;;;;32.38;14.02;98644.38;6831410;29;20234;-87
2021/06/02 15:24:23;;;;;;;1.90;1.40;;;;;;;31.95;14.39;98647.72;6852961;29;20207;-86
2021/06/02 15:27:46;;;;;;;3.83;1.90;;;;;;;31.83;14.64;98635.78;6861724;29;20591;-87
2021/06/02 15:31:11;;;;;;;2.20;1.60;;;;;;;31.33;15.56;98633.22;6858482;29;20242;-84
2021/06/02 15:34:37;;;;;;;1.37;1.27;;;;;;;31.43;15.14;98632.75;6848952;29;20201;-86
2021/06/02 15:37:58;;;;;;;3.07;1.40;;;;;;;31.98;15.18;98632.28;6846053;29;20260;-85
2021/06/02 15:41:19;;;;;;;2.67;1.70;;;;;;;31.10;14.84;98631.94;6823789;29;20218;-86
2021/06/02 15:44:41;;;;;;;2.70;1.47;;;;;;;32.47;14.27;98625.50;6850517;23;20216;-87
2021/06/02 15:48:05;;;;;;;1.50;1.33;;;;;;;33.08;14.17;98618.59;6882975;28;20227;-86
2021/06/02 15:51:27;;;;;;;2.40;1.47;;;;;;;32.27;14.18;98618.13;6878866;28;20221;-86
2021/06/02 15:54:51;;;;;;;1.67;1.57;;;;;;;32.26;14.58;98619.28;6888944;28;20270;-86
2021/06/02 15:58:12;;;;;;;2.90;1.70;;;;;;;32.07;14.41;98611.47;6889339;28;20212;-85
2021/06/02 16:01:34;;;;;;;2.60;1.77;;;;;;;31.83;14.30;98616.25;6889648;28;20219;-85
2021/06/02 16:04:57;;;;;;;2.27;1.40;;;;;;;31.10;14.67;98623.59;6878849;28;20680;-83
2021/06/02 16:08:18;;;;;;;1.53;1.43;;;;;;;32.02;14.52;98617.28;6881265;28;20239;-79
2021/06/02 16:11:39;;;;;;;1.50;1.40;;;;;;;32.10;14.51;98607.16;6884053;28;20539;-83
2021/06/02 16:15:03;;;;;;;2.20;1.50;;;;;;;32.42;14.42;98607.03;6890735;28;20251;-78
2021/06/02 16:18:24;;;;;;;2.23;1.47;;;;;;;32.27;14.14;98618.94;6870607;28;20222;-77
2021/06/02 16:21:47;;;;;;;2.73;1.80;;;;;;;31.72;14.69;98615.88;6863182;28;20622;-77
2021/06/02 16:25:09;;;;;;;2.03;1.37;;;;;;;32.13;15.38;98624.00;6849767;28;20213;-79
2021/06/02 16:28:31;;;;;;;1.47;1.40;;;;;;;32.47;15.15;98623.53;6836550;28;20210;-80
2021/06/02 16:31:53;;;;;;;1.80;1.70;;;;;;;32.29;15.20;98627.75;6859394;28;20262;-82
2021/06/02 16:35:19;;;;;;;1.63;1.53;;;;;;;32.22;14.59;98635.88;6859266;28;20204;-85
2021/06/02 16:38:42;;;;;;;1.60;1.50;;;;;;;32.12;14.79;98636.34;6836459;29;20224;-81
2021/06/02 16:42:04;;;;;;;2.80;1.60;;;;;;;32.21;14.95;98613.91;6856917;28;20209;-81
2021/06/02 16:45:26;;;;;;;2.33;1.67;;;;;;;32.80;14.90;98626.16;6852390;28;20304;-85
2021/06/02 16:48:47;;;;;;;2.30;1.80;;;;;;;32.52;15.02;98626.09;6841172;28;20721;-85
2021/06/02 16:52:13;;;;;;;1.70;1.60;;;;;;;32.12;15.73;98622.41;6849925;28;20229;-82
2021/06/02 16:55:37;;;;;;;1.60;1.43;;;;;;;31.99;15.24;98633.91;6851330;28;20249;-82
2021/06/02 16:59:01;;;;;;;1.83;1.70;;;;;;;32.17;15.03;98629.72;6826968;28;20659;-81
2021/06/02 17:02:22;;;;;;;2.07;1.70;;;;;;;32.16;15.15;98642.88;6853809;28;20291;-86
2021/06/02 17:05:48;;;;;;;2.10;1.90;;;;;;;32.35;14.86;98648.69;6862203;28;20233;-86
2021/06/02 17:09:10;;;;;;;1.90;1.80;;;;;;;32.24;15.56;98641.09;6862108;28;20237;-81
2021/06/02 17:12:36;;;;;;;1.97;1.80;;;;;;;32.53;15.62;98641.69;6849723;28;20218;-83
2021/06/02 17:15:57;;;;;;;2.27;1.87;;;;;;;32.38;15.77;98653.56;6837345;29;20212;-82
2021/06/02 17:19:23;;;;;;;2.10;1.90;;;;;;;32.09;15.56;98658.56;6836633;29;20728;-82
2021/06/02 17:22:45;;;;;;;1.83;1.70;;;;;;;32.62;15.43;98666.69;6835826;29;20595;-82
2021/06/02 17:26:10;;;;;;;3.27;2.00;;;;;;;32.27;15.48;98662.75;6835149;29;20231;-82
2021/06/02 17:29:34;;;;;;;3.40;2.00;;;;;;;31.36;16.44;98662.38;6836162;28;20267;-82
2021/06/02 17:32:56;;;;;;;1.80;1.67;;;;;;;31.49;15.98;98659.25;6856174;28;20219;-82
2021/06/02 17:36:19;;;;;;;2.00;1.60;;;;;;;31.81;15.95;98658.44;6862162;28;20667;-80
2021/06/02 17:39:41;;;;;;;1.90;1.67;;;;;;;31.78;16.06;98638.78;6859611;28;20214;-83
2021/06/02 17:43:18;;;;;;;1.80;1.70;;;;;;;31.80;16.49;98658.75;6834324;29;20258;-82
2021/06/02 17:46:42;;;;;;;2.23;1.70;;;;;;;31.29;16.74;98664.88;6752117;29;20244;-85
2021/06/02 17:50:05;;;;;;;2.50;1.90;;;;;;;31.44;16.41;98642.72;6764401;29;20213;-85
2021/06/02 17:53:27;;;;;;;2.70;1.77;;;;;;;31.25;16.81;98634.09;6777473;29;20257;-84
2021/06/02 17:56:52;;;;;;;4.00;2.00;;;;;;;31.80;17.30;98679.13;6778095;29;20208;-81
2021/06/02 18:00:14;;;;;;;2.73;2.20;;;;;;;31.25;17.05;98680.66;6777909;29;20219;-79
2021/06/02 18:03:38;;;;;;;2.80;2.13;;;;;;;31.51;17.49;98676.47;6771655;29;20219;-80
2021/06/02 18:07:00;;;;;;;3.97;2.00;;;;;;;31.54;17.84;98688.91;6771148;29;20238;-80
2021/06/02 18:10:21;;;;;;;3.80;1.97;;;;;;;31.44;17.59;98698.47;6766317;29;20769;-80
2021/06/02 18:13:42;;;;;;;3.30;1.70;;;;;;;31.33;18.74;98691.72;6753769;29;20214;-80
2021/06/02 18:17:08;;;;;;;4.33;2.10;;;;;;;31.15;21.02;98692.19;6753408;29;20211;-80
2021/06/02 18:20:34;;;;;;;2.27;1.97;;;;;;;30.62;21.61;98701.28;6756355;29;20228;-83
2021/06/02 18:24:06;;;;;;;2.73;1.60;;;;;;;30.61;21.95;98699.63;6812290;28;20566;-84
2021/06/02 18:27:36;;;;;;;2.90;2.37;;;;;;;28.86;25.14;98713.34;6861532;28;20264;-84
2021/06/02 18:31:04;;;;;;;2.70;2.03;;;;;;;29.00;25.24;98714.84;6859458;28;20189;-84
2021/06/02 18:34:25;;;;;;;3.30;3.00;;;;;;;29.52;24.50;98704.47;6859965;28;20284;-84
2021/06/02 18:37:49;;;;;;;3.83;2.90;;;;;;;29.40;24.73;98702.41;6832250;28;20212;-86
2021/06/02 18:41:12;;;;;;;10.17;2.40;;;;;;;28.97;25.22;98690.53;6857996;28;20681;-84
2021/06/02 18:44:33;;;;;;;4.57;3.60;;;;;;;27.87;27.78;98715.16;6866912;28;20211;-86
2021/06/02 18:47:54;;;;;;;5.00;3.03;;;;;;;26.78;29.89;98714.84;6856753;28;20236;-86
2021/06/02 18:51:16;;;;;;;3.63;2.90;;;;;;;27.27;29.38;98720.34;6860219;28;20225;-85
2021/06/02 18:54:39;;;;;;;4.93;3.00;;;;;;;26.55;30.88;98738.06;6854544;28;20638;-87
2021/06/02 18:58:01;;;;;;;4.60;2.97;;;;;;;26.92;30.63;98740.53;6857197;28;20231;-84
2021/06/02 19:01:27;;;;;;;6.73;2.83;;;;;;;26.47;31.36;98744.28;6842687;28;20227;-87
2021/06/02 19:04:51;;;;;;;4.70;2.50;;;;;;;25.66;32.95;98737.91;6856878;28;20345;-84
2021/06/02 19:08:14;;;;;;;5.63;3.00;;;;;;;25.80;32.60;98734.03;6854332;28;20549;-85
2021/06/02 19:11:38;;;;;;;5.83;2.87;;;;;;;26.31;32.31;98736.63;6855238;28;20213;-82
2021/06/02 19:14:59;;;;;;;7.10;2.70;;;;;;;26.11;32.78;98757.22;6855392;28;20224;-81
2021/06/02 19:18:21;;;;;;;3.33;2.83;;;;;;;25.94;33.33;98748.69;6863730;28;20215;-83
2021/06/02 19:21:42;;;;;;;3.97;2.53;;;;;;;25.73;33.75;98752.91;6863053;28;20191;-87
2021/06/02 19:25:05;;;;;;;4.17;2.50;;;;;;;25.64;33.95;98776.84;6858510;28;20211;-79
2021/06/02 19:28:27;;;;;;;3.23;2.73;;;;;;;25.70;33.91;98772.88;6827844;28;20236;-83
2021/06/02 19:31:48;;;;;;;2.50;2.30;;;;;;;25.63;34.11;98790.97;6854823;28;20225;-83
2021/06/02 19:35:13;;;;;;;2.60;2.40;;;;;;;25.33;34.69;98792.31;6862101;28;20212;-83
2021/06/02 19:38:35;;;;;;;3.00;2.60;;;;;;;24.97;35.42;98763.59;6866347;28;20299;-83
2021/06/02 19:41:56;;;;;;;4.20;2.40;;;;;;;24.47;35.92;98739.44;6864785;28;20208;-85
2021/06/02 19:45:19;;;;;;;4.50;2.73;;;;;;;24.35;36.49;98799.69;6865095;28;20268;-82